Weather History for KAFK - February, 2013

Change the Weather History Date:

Sunday, February 10, 2013

  Actual Average (KSDA) Record (KSDA)
Temperature  
Mean Temperature 39 °F -  
Max Temperature 46 °F 35 °F 77 °F (1999)
Min Temperature 32 °F 17 °F -11 °F (2014)
Degree Days  
Heating Degree Days 26    
Moisture  
Dew Point 33 °F    
Average Humidity 83    
Maximum Humidity 99    
Minimum Humidity 61    
Precipitation  
Precipitation 0.01 in - - ()
Sea Level Pressure  
Sea Level Pressure 29.50 in    
Wind  
Wind Speed 20 mph (SW)    
Max Wind Speed 36 mph    
Max Gust Speed 46 mph    
Visibility 8 miles    
Events Rain    
Averages and records for this station are not official NWS values.
T = Trace of Precipitation, MM = Missing Value Source: NWS Daily Summary

Daily Weather History Graph

Daily Weather History Graph

Search for Another Location

Airport or City:

Trip Planner

Search our weather history database for the weather conditions in past years. The results will help you decide how hot, cold, wet, or windy it might be!

Date:

Astronomy

Feb. 10, 2013 Rise Set
Actual Time 7:23 AM CST 5:52 PM CST
Civil Twilight 6:54 AM CST 6:21 PM CST
Nautical Twilight 6:22 AM CST 6:53 PM CST
Astronomical Twilight 5:50 AM CST 7:25 PM CST
Moon 7:13 AM CST (2/10) 6:45 PM CST (2/10)
Length of Visible Light 11h 26m
Length of Day
10h 29m
New Moon, 0% of the Moon is Illuminated
Feb 10
New Moon
Feb 17
First Quarter
Feb 25
Full
Mar 4
Last Quarter
Mar 11
New

Hourly Weather History & Observations

Time (CST) Temp. Windchill Dew Point Humidity Pressure Visibility Wind Dir Wind Speed Gust Speed Precip Events Conditions
12:15 AM 40.3 °F 33.4 °F 34.7 °F 80% 29.69 in 10.0 mi SSE 11.5 mph 18.4 mph N/A   Overcast
12:35 AM 40.3 °F 32.2 °F 34.9 °F 81% 29.69 in 10.0 mi SSE 15.0 mph - N/A   Overcast
12:55 AM 39.9 °F 31.4 °F 35.4 °F 84% 29.68 in 7.0 mi SSE 16.1 mph 23.0 mph N/A   Overcast
1:15 AM 39.4 °F 31.4 °F 36.7 °F 90% 29.67 in 7.0 mi SSE 13.8 mph 20.7 mph N/A   Overcast
1:35 AM 39.2 °F 29.8 °F 37.9 °F 95% 29.61 in 5.0 mi SE 18.4 mph - N/A Rain Rain
1:55 AM 39.2 °F 31.6 °F 38.3 °F 97% 29.62 in 5.0 mi SSE 12.7 mph 18.4 mph N/A   Overcast
2:15 AM 39.2 °F 31.2 °F 38.5 °F 97% 29.60 in 3.0 mi SSE 13.8 mph 19.6 mph N/A   Overcast
2:35 AM 39.2 °F 30.5 °F 38.7 °F 98% 29.58 in 3.0 mi SSE 16.1 mph - N/A   Overcast
2:55 AM 39.4 °F 31.1 °F 39.2 °F 99% 29.57 in 2.5 mi SSE 15.0 mph - N/A   Overcast
3:15 AM 40.1 °F 31.0 °F 39.7 °F 99% 29.54 in 2.0 mi SSE 18.4 mph 24.2 mph N/A Rain Light Rain
3:55 AM 40.5 °F 32.1 °F 40.3 °F 99% 29.50 in 3.0 mi SE 16.1 mph 19.6 mph N/A   Overcast
4:15 AM 40.5 °F 32.5 °F 40.3 °F 99% 29.47 in 2.5 mi SSE 15.0 mph 21.9 mph N/A   Overcast
4:35 AM 41.4 °F 32.7 °F 41.2 °F 99% 29.45 in 3.0 mi SSE 18.4 mph 24.2 mph N/A   Overcast
4:55 AM 41.4 °F 33.0 °F 41.2 °F 99% 29.44 in 3.0 mi SSE 17.3 mph 25.3 mph N/A   Overcast
5:15 AM 42.1 °F 33.6 °F 41.9 °F 99% 29.42 in 5.0 mi SSE 18.4 mph 27.6 mph N/A   Overcast
5:35 AM 42.1 °F 33.3 °F 41.9 °F 99% 29.41 in 3.0 mi SSE 19.6 mph 24.2 mph N/A Rain Rain
5:55 AM 42.3 °F 33.3 °F 41.9 °F 99% 29.40 in 2.5 mi SSE 20.7 mph 26.5 mph N/A Rain Light Rain
6:15 AM 42.4 °F 34.1 °F 42.3 °F 99% 29.40 in 5.0 mi South 18.4 mph - N/A   Overcast
6:35 AM 42.8 °F 34.3 °F 42.4 °F 99% 29.38 in 7.0 mi South 19.6 mph 25.3 mph N/A   Overcast
7:15 AM 43.9 °F 35.4 °F 43.3 °F 98% 29.38 in 10.0 mi South 20.7 mph 26.5 mph N/A   Overcast
7:35 AM 43.9 °F 36.8 °F 43.3 °F 98% 29.38 in 10.0 mi South 15.0 mph 24.2 mph N/A   Overcast
7:55 AM 43.7 °F 36.3 °F 43.0 °F 97% 29.37 in 7.0 mi South 16.1 mph - N/A   Overcast
8:15 AM 43.7 °F 35.7 °F 42.8 °F 97% 29.35 in 10.0 mi South 18.4 mph 21.9 mph N/A   Scattered Clouds
8:35 AM 45.0 °F 37.4 °F 43.2 °F 93% 29.34 in 10.0 mi South 18.4 mph 25.3 mph N/A   Mostly Cloudy
8:55 AM 46.4 °F 37.7 °F 43.3 °F 89% 29.32 in 10.0 mi South 26.5 mph 32.2 mph N/A   Overcast
9:15 AM 46.2 °F 37.7 °F 42.4 °F 87% 29.31 in 10.0 mi South 25.3 mph 31.1 mph N/A   Overcast
9:35 AM 44.6 °F 34.4 °F 36.0 °F 72% 29.31 in 10.0 mi SW 32.2 mph 36.8 mph N/A   Mostly Cloudy
9:55 AM 44.1 °F 34.6 °F 33.8 °F 67% 29.31 in 10.0 mi SW 26.5 mph 34.5 mph N/A   Scattered Clouds
10:15 AM 42.4 °F 31.6 °F 32.9 °F 69% 29.31 in 10.0 mi SSW 31.1 mph 36.8 mph N/A   Scattered Clouds
10:35 AM 40.6 °F 29.6 °F 31.1 °F 69% 29.31 in 10.0 mi SW 28.8 mph 40.3 mph N/A   Scattered Clouds
10:55 AM 42.1 °F 31.1 °F 31.5 °F 66% 29.31 in 10.0 mi SW 31.1 mph 38.0 mph N/A   Scattered Clouds
11:15 AM 42.4 °F 32.6 °F 30.2 °F 62% 29.32 in 10.0 mi SW 25.3 mph 36.8 mph N/A   Mostly Cloudy
11:35 AM 41.9 °F 31.5 °F 29.7 °F 62% 29.32 in 10.0 mi SW 27.6 mph 34.5 mph N/A   Mostly Cloudy
11:55 AM 41.5 °F 31.0 °F 29.1 °F 61% 29.32 in 10.0 mi SSW 27.6 mph 35.7 mph N/A   Mostly Cloudy
12:15 PM 40.8 °F 30.2 °F 30.0 °F 65% 29.32 in 10.0 mi SW 26.5 mph 40.3 mph N/A   Overcast
12:35 PM 40.5 °F 29.5 °F 30.6 °F 68% 29.31 in 10.0 mi SW 27.6 mph 36.8 mph N/A   Overcast
12:55 PM 39.2 °F 27.0 °F 31.1 °F 73% 29.32 in 10.0 mi SW 32.2 mph 40.3 mph N/A   Overcast
1:15 PM 39.2 °F 27.6 °F 31.6 °F 74% 29.32 in 10.0 mi SW 28.8 mph 40.3 mph N/A   Overcast
1:35 PM 39.4 °F 26.7 °F 31.1 °F 72% 29.32 in 10.0 mi WSW 35.7 mph 42.6 mph N/A   Overcast
1:55 PM 36.5 °F 23.1 °F 32.5 °F 86% 29.33 in 1.5 mi WSW 33.4 mph 46.0 mph N/A   Drizzle
2:15 PM 35.8 °F 22.5 °F 34.9 °F 97% 29.34 in 2.0 mi SW 31.1 mph 42.6 mph N/A   Drizzle
2:35 PM 35.6 °F 22.7 °F 34.7 °F 97% 29.35 in 2.5 mi WSW 28.8 mph 38.0 mph N/A Rain Light Rain
2:55 PM 35.4 °F 22.5 °F 34.7 °F 97% 29.37 in 4.0 mi WSW 28.8 mph 35.7 mph N/A   Light Drizzle
3:15 PM 35.6 °F 22.5 °F 34.7 °F 97% 29.39 in 3.0 mi WSW 29.9 mph 39.1 mph N/A   Overcast
3:35 PM 35.6 °F 23.4 °F 34.7 °F 97% 29.41 in 2.5 mi WSW 25.3 mph 35.7 mph N/A Rain Light Rain
3:55 PM 34.7 °F 22.2 °F 34.2 °F 98% 29.43 in 1.5 mi WSW 25.3 mph 31.1 mph 0.01 in   Drizzle
4:15 PM 34.7 °F 22.5 °F 34.2 °F 98% 29.45 in 2.0 mi WSW 24.2 mph - N/A   Drizzle
4:35 PM 34.9 °F 22.5 °F 33.8 °F 96% 29.48 in 5.0 mi West 25.3 mph 29.9 mph N/A   Overcast
4:55 PM 35.1 °F 24.1 °F 32.4 °F 90% 29.50 in 10.0 mi West 19.6 mph - N/A   Overcast
5:15 PM 35.1 °F 23.3 °F 30.7 °F 84% 29.53 in 10.0 mi West 23.0 mph 29.9 mph N/A   Overcast
5:35 PM 34.7 °F 22.2 °F 28.6 °F 78% 29.55 in 10.0 mi West 25.3 mph 32.2 mph N/A   Overcast
5:55 PM 34.2 °F 22.3 °F 27.7 °F 77% 29.56 in 10.0 mi West 21.9 mph 33.4 mph N/A   Overcast
6:15 PM 34.0 °F 22.1 °F 27.3 °F 77% 29.58 in 10.0 mi West 21.9 mph 31.1 mph N/A   Overcast
6:35 PM 33.8 °F 21.3 °F 26.1 °F 73% 29.60 in 10.0 mi WNW 24.2 mph 34.5 mph N/A   Overcast
6:55 PM 33.8 °F 20.5 °F 24.8 °F 70% 29.61 in 10.0 mi WNW 27.6 mph 36.8 mph N/A   Overcast
7:15 PM 33.4 °F 20.3 °F 24.4 °F 70% 29.63 in 10.0 mi WNW 26.5 mph 39.1 mph N/A   Overcast
7:35 PM 33.1 °F 20.6 °F 23.9 °F 69% 29.64 in 10.0 mi WNW 23.0 mph 40.3 mph N/A   Overcast
7:55 PM 33.1 °F 20.6 °F 23.4 °F 67% 29.65 in 10.0 mi WNW 23.0 mph 36.8 mph N/A   Overcast
8:15 PM 32.9 °F 19.3 °F 23.5 °F 68% 29.67 in 10.0 mi WNW 27.6 mph 39.1 mph N/A   Overcast
8:35 PM 32.2 °F 20.0 °F 23.7 °F 71% 29.69 in 10.0 mi WNW 20.7 mph 32.2 mph N/A   Overcast
8:55 PM 32.4 °F 20.9 °F 23.9 °F 71% 29.70 in 10.0 mi WNW 18.4 mph 36.8 mph N/A   Overcast
9:15 PM 32.5 °F 20.2 °F 23.9 °F 70% 29.72 in 10.0 mi WNW 21.9 mph 32.2 mph N/A   Mostly Cloudy
9:35 PM 32.9 °F 18.9 °F 23.5 °F 68% 29.74 in 10.0 mi NW 29.9 mph 36.8 mph N/A   Mostly Cloudy
9:55 PM 32.2 °F 20.4 °F 23.0 °F 69% 29.75 in 10.0 mi WNW 19.6 mph 34.5 mph N/A   Scattered Clouds
10:15 PM 32.7 °F 19.6 °F 23.9 °F 70% 29.77 in 10.0 mi WNW 25.3 mph 34.5 mph N/A   Mostly Cloudy
10:35 PM 33.1 °F 20.6 °F 24.1 °F 70% 29.79 in 10.0 mi WNW 23.0 mph 31.1 mph N/A   Overcast
10:55 PM 33.6 °F 21.3 °F 24.3 °F 69% 29.80 in 10.0 mi WNW 23.0 mph 33.4 mph N/A   Overcast
11:15 PM 33.6 °F 23.3 °F 25.2 °F 71% 29.80 in 10.0 mi WNW 16.1 mph 29.9 mph N/A   Overcast
11:35 PM 33.8 °F 21.9 °F 25.9 °F 73% 29.82 in 10.0 mi WNW 21.9 mph 27.6 mph N/A   Overcast
11:55 PM 33.8 °F 23.2 °F 25.7 °F 72% 29.83 in 10.0 mi WNW 17.3 mph 26.5 mph N/A   Overcast